Time;durP1;ratioP1;P1;durP2;ratioP2;P2;SDS_P1;SDS_P2;PMS_P1;PMS_P2;Temp;Humidity;BMP_temperature;BMP_pressure;BME280_temperature;BME280_humidity;BME280_pressure;Samples;Min_cycle;Max_cycle;Signal;HPM_P1;HPM_P2
2022/07/20 00:00:00;;;;;;;5.35;4.85;;;21.80;58.90;;;;;;5070929;28;20219;-82
2022/07/20 00:02:26;;;;;;;6.35;5.00;;;21.80;59.00;;;;;;5070890;28;20218;-82
2022/07/20 00:04:53;;;;;;;6.05;4.97;;;21.70;59.10;;;;;;5062039;28;20219;-81
2022/07/20 00:07:21;;;;;;;5.68;5.07;;;21.70;59.20;;;;;;5055418;28;20254;-81
2022/07/20 00:12:32;;;;;;;8.20;5.30;;;21.60;59.50;;;;;;5043320;28;20331;-83
2022/07/20 00:14:59;;;;;;;5.10;4.50;;;21.60;59.60;;;;;;5053678;28;20287;-82
2022/07/20 00:17:26;;;;;;;8.63;5.15;;;21.50;59.80;;;;;;5046591;28;20821;-83
2022/07/20 00:19:53;;;;;;;6.95;4.65;;;21.50;60.00;;;;;;5053968;28;20254;-83
2022/07/20 00:22:21;;;;;;;6.18;4.90;;;21.50;60.20;;;;;;5048948;28;20270;-83
2022/07/20 00:24:47;;;;;;;7.68;4.78;;;21.40;60.30;;;;;;5061815;28;20226;-83
2022/07/20 00:27:14;;;;;;;5.70;4.60;;;21.40;60.30;;;;;;5043402;28;20307;-81
2022/07/20 00:29:41;;;;;;;6.43;5.07;;;21.30;60.50;;;;;;5047523;28;20219;-82
2022/07/20 00:32:08;;;;;;;6.63;4.90;;;21.30;60.70;;;;;;5055364;28;20231;-82
2022/07/20 00:34:34;;;;;;;6.68;5.38;;;21.30;60.70;;;;;;5044750;28;20232;-82
2022/07/20 00:37:01;;;;;;;9.27;5.15;;;21.30;61.00;;;;;;5047939;28;20323;-82
2022/07/20 00:39:29;;;;;;;6.15;5.25;;;21.20;61.20;;;;;;5045584;28;20234;-81
2022/07/20 00:41:56;;;;;;;6.20;4.88;;;21.20;61.50;;;;;;5047467;28;20216;-82
2022/07/20 00:44:22;;;;;;;6.65;4.90;;;21.20;61.50;;;;;;5047306;28;20228;-81
2022/07/20 00:46:49;;;;;;;6.00;4.93;;;21.10;61.60;;;;;;5047501;28;20307;-82
2022/07/20 00:49:16;;;;;;;7.07;4.95;;;21.10;61.80;;;;;;5047064;28;20232;-82
2022/07/20 00:51:44;;;;;;;7.57;4.90;;;21.00;62.00;;;;;;5045025;28;20222;-81
2022/07/20 00:54:11;;;;;;;7.20;4.82;;;21.00;62.30;;;;;;5043743;28;20231;-80
2022/07/20 00:56:39;;;;;;;8.93;4.93;;;21.00;62.40;;;;;;5044719;28;20235;-81
2022/07/20 00:59:08;;;;;;;6.28;4.90;;;20.90;62.70;;;;;;5054347;28;20227;-81
2022/07/20 01:01:36;;;;;;;5.18;4.60;;;20.90;63.00;;;;;;5063959;28;20675;-82
2022/07/20 01:04:03;;;;;;;7.82;4.63;;;20.80;63.10;;;;;;5063753;28;20231;-83
2022/07/20 01:06:30;;;;;;;6.72;4.82;;;20.80;63.00;;;;;;5056785;28;20220;-83
2022/07/20 01:08:57;;;;;;;7.43;5.10;;;20.80;63.20;;;;;;5051224;28;20232;-84
2022/07/20 01:11:24;;;;;;;6.32;4.85;;;20.80;63.30;;;;;;5047534;28;20245;-84
2022/07/20 01:13:52;;;;;;;8.30;5.00;;;20.70;63.40;;;;;;5050863;28;20231;-84
2022/07/20 01:16:19;;;;;;;7.03;4.90;;;20.70;63.70;;;;;;5045642;28;20216;-84
2022/07/20 01:18:46;;;;;;;6.72;5.07;;;20.70;63.70;;;;;;5057548;28;20224;-84
2022/07/20 01:21:14;;;;;;;8.55;5.25;;;20.70;63.80;;;;;;5048514;28;20223;-85
2022/07/20 01:23:41;;;;;;;6.75;4.80;;;20.70;63.90;;;;;;5050766;28;20235;-84
2022/07/20 01:26:08;;;;;;;6.05;5.05;;;20.60;63.80;;;;;;5045879;28;20762;-84
2022/07/20 01:28:35;;;;;;;6.75;5.07;;;20.60;63.80;;;;;;5050092;28;21968;-83
2022/07/20 01:31:01;;;;;;;6.35;5.18;;;20.60;64.10;;;;;;5052332;28;20230;-84
2022/07/20 01:33:28;;;;;;;6.03;5.13;;;20.60;64.10;;;;;;5050147;28;20370;-84
2022/07/20 01:35:55;;;;;;;8.40;5.40;;;20.60;64.20;;;;;;5057650;28;20234;-84
2022/07/20 01:38:23;;;;;;;7.93;5.13;;;20.60;64.30;;;;;;5049491;28;20222;-84
2022/07/20 01:40:50;;;;;;;6.82;4.82;;;20.60;64.70;;;;;;5057541;28;20278;-85
2022/07/20 01:43:16;;;;;;;7.13;4.75;;;20.50;64.60;;;;;;5057024;28;20250;-85
2022/07/20 01:45:43;;;;;;;9.32;4.90;;;20.50;64.90;;;;;;5059827;28;20660;-83
2022/07/20 01:48:10;;;;;;;6.18;4.60;;;20.60;65.00;;;;;;5063361;28;20233;-84
2022/07/20 01:50:39;;;;;;;6.65;5.15;;;20.50;65.00;;;;;;5056734;28;20220;-83
2022/07/20 01:53:06;;;;;;;7.80;4.90;;;20.50;65.20;;;;;;5064746;28;20222;-83
2022/07/20 01:55:34;;;;;;;6.43;4.57;;;20.50;65.10;;;;;;5062862;28;20223;-82
2022/07/20 01:58:00;;;;;;;6.22;4.60;;;20.50;65.40;;;;;;5058424;28;20227;-82
2022/07/20 02:00:28;;;;;;;6.70;4.40;;;20.40;65.30;;;;;;5058227;28;20311;-84
2022/07/20 02:02:54;;;;;;;9.05;5.03;;;20.40;65.40;;;;;;5078821;28;20223;-83
2022/07/20 02:05:21;;;;;;;6.68;4.97;;;20.40;65.70;;;;;;5058350;28;20699;-83
2022/07/20 02:07:48;;;;;;;6.50;5.00;;;20.40;65.90;;;;;;5069669;28;20229;-84
2022/07/20 02:10:15;;;;;;;10.77;5.22;;;20.40;66.00;;;;;;5059289;28;20318;-83
2022/07/20 02:12:43;;;;;;;6.50;5.20;;;20.40;66.10;;;;;;5055928;28;20238;-83
2022/07/20 02:16:14;;;;;;;7.88;5.63;;;20.30;66.50;;;;;;5053813;28;20231;-82
2022/07/20 02:18:00;;;;;;;7.85;5.18;;;20.30;66.40;;;;;;5052140;28;20220;-83
2022/07/20 02:20:26;;;;;;;8.18;5.40;;;20.30;66.40;;;;;;5070816;28;20220;-84
2022/07/20 02:22:53;;;;;;;6.80;4.93;;;20.30;66.60;;;;;;5064754;28;21917;-85
2022/07/20 02:25:20;;;;;;;5.80;5.00;;;20.20;66.80;;;;;;5055414;28;20222;-84
2022/07/20 02:27:48;;;;;;;7.95;5.35;;;20.20;67.00;;;;;;5056676;28;20227;-84
2022/07/20 02:30:14;;;;;;;12.18;5.07;;;20.10;67.10;;;;;;5057779;28;20827;-85
2022/07/20 02:32:41;;;;;;;6.88;4.82;;;20.10;67.20;;;;;;5057865;28;20307;-83
2022/07/20 02:35:09;;;;;;;11.07;5.20;;;20.10;67.40;;;;;;5070000;28;20241;-83
2022/07/20 02:37:36;;;;;;;5.57;4.85;;;20.10;67.60;;;;;;5060362;28;20230;-84
2022/07/20 02:40:03;;;;;;;6.45;5.07;;;20.00;67.60;;;;;;5053099;28;20220;-85
2022/07/20 02:42:29;;;;;;;7.15;4.60;;;20.00;67.80;;;;;;5057734;28;20250;-85
2022/07/20 02:44:57;;;;;;;7.57;5.15;;;20.00;68.00;;;;;;5055731;28;20537;-85
2022/07/20 02:47:24;;;;;;;6.68;4.95;;;20.00;68.60;;;;;;5058407;28;20231;-85
2022/07/20 02:49:51;;;;;;;8.25;5.35;;;19.90;68.50;;;;;;5049081;28;20212;-84
2022/07/20 02:52:17;;;;;;;6.60;5.82;;;19.90;68.70;;;;;;5056369;28;20223;-84
2022/07/20 02:54:44;;;;;;;5.72;5.10;;;19.90;68.90;;;;;;5060075;28;20711;-85
2022/07/20 02:57:11;;;;;;;8.00;5.28;;;19.80;68.90;;;;;;5060272;28;20297;-85
2022/07/20 02:59:37;;;;;;;6.55;5.22;;;19.80;69.10;;;;;;5053725;28;20223;-84
2022/07/20 03:02:05;;;;;;;8.10;5.10;;;19.80;69.30;;;;;;5054698;28;20234;-85
2022/07/20 03:04:32;;;;;;;7.25;5.20;;;19.70;69.70;;;;;;5061730;28;20308;-84
2022/07/20 03:06:59;;;;;;;7.32;5.20;;;19.70;69.90;;;;;;5054332;28;20645;-84
2022/07/20 03:09:25;;;;;;;6.35;4.97;;;19.70;70.10;;;;;;5052605;28;20228;-83
2022/07/20 03:11:52;;;;;;;10.68;5.53;;;19.60;70.20;;;;;;5058997;28;20227;-82
2022/07/20 03:14:19;;;;;;;8.45;5.20;;;19.60;70.50;;;;;;5058055;28;20220;-83
2022/07/20 03:16:48;;;;;;;8.18;5.90;;;19.60;70.50;;;;;;5060972;28;20228;-84
2022/07/20 03:19:16;;;;;;;6.05;5.32;;;19.60;70.80;;;;;;5055500;28;20224;-83
2022/07/20 03:21:43;;;;;;;8.43;4.88;;;19.60;71.20;;;;;;5050020;28;20219;-85
2022/07/20 03:24:09;;;;;;;7.13;5.32;;;19.50;71.20;;;;;;5052476;28;20247;-84
2022/07/20 03:26:36;;;;;;;12.60;5.43;;;19.50;71.40;;;;;;5050500;28;20234;-83
2022/07/20 03:29:03;;;;;;;7.00;5.10;;;19.50;71.60;;;;;;5057746;28;20238;-83
2022/07/20 03:31:29;;;;;;;8.55;5.53;;;19.50;71.80;;;;;;5057557;28;20224;-83
2022/07/20 03:33:56;;;;;;;6.68;5.47;;;19.40;72.10;;;;;;5054724;28;20254;-82
2022/07/20 03:36:24;;;;;;;9.25;5.35;;;19.40;72.10;;;;;;5051822;28;20224;-83
2022/07/20 03:38:51;;;;;;;6.25;5.20;;;19.40;72.80;;;;;;5059020;28;20354;-83
2022/07/20 03:41:17;;;;;;;6.53;5.15;;;19.40;72.70;;;;;;5052177;28;20227;-84
2022/07/20 03:43:44;;;;;;;8.18;5.35;;;19.40;72.90;;;;;;5059355;28;20226;-85
2022/07/20 03:46:12;;;;;;;9.52;5.30;;;19.40;73.10;;;;;;5062449;28;20803;-82
2022/07/20 03:48:39;;;;;;;8.05;5.13;;;19.40;73.30;;;;;;5056206;28;20863;-83
2022/07/20 03:51:06;;;;;;;8.73;5.93;;;19.30;73.40;;;;;;5056782;28;20224;-83
2022/07/20 03:53:34;;;;;;;7.85;5.07;;;19.40;73.70;;;;;;5052859;28;20231;-82
2022/07/20 03:56:00;;;;;;;6.10;5.13;;;19.40;73.80;;;;;;5051692;28;20231;-83
2022/07/20 03:58:27;;;;;;;9.38;5.30;;;19.30;73.70;;;;;;5059852;28;20219;-83
2022/07/20 04:00:54;;;;;;;6.82;5.28;;;19.30;73.70;;;;;;5048865;28;20228;-85
2022/07/20 04:03:20;;;;;;;7.63;5.82;;;19.40;74.10;;;;;;5052557;28;20232;-83
2022/07/20 04:05:47;;;;;;;8.65;5.47;;;19.40;74.40;;;;;;5060264;28;20219;-84
2022/07/20 04:08:14;;;;;;;8.35;5.30;;;19.40;74.30;;;;;;5049772;28;20230;-84
2022/07/20 04:10:42;;;;;;;6.65;5.30;;;19.40;74.40;;;;;;5050212;28;20223;-83
2022/07/20 04:13:08;;;;;;;9.05;5.60;;;19.40;74.70;;;;;;5049961;28;20685;-82
2022/07/20 04:15:35;;;;;;;9.73;5.65;;;19.50;74.80;;;;;;5058559;28;20306;-85
2022/07/20 04:18:02;;;;;;;5.93;4.88;;;19.40;74.80;;;;;;5057557;28;20232;-84
2022/07/20 04:20:30;;;;;;;7.00;5.00;;;19.50;75.10;;;;;;5068444;28;20219;-84
2022/07/20 04:22:56;;;;;;;8.07;5.05;;;19.50;75.10;;;;;;5068654;28;20225;-81
2022/07/20 04:25:23;;;;;;;7.70;5.18;;;19.50;75.10;;;;;;5048671;28;20326;-83
2022/07/20 04:27:51;;;;;;;6.60;4.85;;;19.60;75.10;;;;;;5063855;28;20597;-85
2022/07/20 04:30:18;;;;;;;7.78;4.88;;;19.60;75.30;;;;;;5053008;28;20231;-84
2022/07/20 04:32:44;;;;;;;9.85;5.40;;;19.70;75.70;;;;;;5058202;28;20226;-84
2022/07/20 04:35:12;;;;;;;8.38;6.07;;;19.70;75.60;;;;;;5038447;28;20287;-84
2022/07/20 04:37:39;;;;;;;6.65;5.93;;;19.80;76.00;;;;;;5069193;28;20410;-85
2022/07/20 04:40:07;;;;;;;7.07;5.07;;;19.90;76.20;;;;;;5059972;28;20224;-82
2022/07/20 04:42:34;;;;;;;6.13;4.63;;;19.80;76.00;;;;;;5049678;28;20224;-85
2022/07/20 04:45:03;;;;;;;6.35;5.03;;;20.00;76.00;;;;;;5063236;28;20714;-85
2022/07/20 04:47:30;;;;;;;6.53;5.28;;;20.00;76.40;;;;;;5054706;28;20227;-84
2022/07/20 04:49:56;;;;;;;6.45;5.05;;;20.00;76.30;;;;;;5055485;28;20242;-85
2022/07/20 04:52:23;;;;;;;8.50;5.10;;;20.00;76.30;;;;;;5051316;28;20231;-85
2022/07/20 04:54:50;;;;;;;6.63;5.05;;;20.10;75.90;;;;;;5062137;28;20228;-85
2022/07/20 04:57:17;;;;;;;6.47;5.03;;;20.10;75.90;;;;;;5056963;28;20763;-85
2022/07/20 04:59:43;;;;;;;6.43;4.72;;;20.10;76.30;;;;;;5056446;28;20230;-85
2022/07/20 05:02:11;;;;;;;7.43;5.30;;;20.20;76.10;;;;;;5053284;28;20224;-86
2022/07/20 05:04:38;;;;;;;6.72;5.70;;;20.20;76.20;;;;;;5059387;28;20322;-85
2022/07/20 05:07:05;;;;;;;6.25;5.07;;;20.30;76.30;;;;;;5051009;28;20227;-83
2022/07/20 05:09:31;;;;;;;9.73;5.13;;;20.30;76.10;;;;;;5058625;28;20279;-81
2022/07/20 05:11:58;;;;;;;8.13;5.25;;;20.40;75.90;;;;;;5058012;28;20305;-82
2022/07/20 05:14:25;;;;;;;8.30;5.20;;;20.40;75.80;;;;;;5059857;28;20227;-82
2022/07/20 05:16:52;;;;;;;8.20;5.13;;;20.50;76.10;;;;;;5065399;28;20219;-81
2022/07/20 05:19:20;;;;;;;9.00;5.25;;;20.50;75.90;;;;;;5066830;28;20235;-81
2022/07/20 05:21:47;;;;;;;6.57;4.75;;;20.60;75.90;;;;;;5067095;28;20228;-81
2022/07/20 05:24:13;;;;;;;7.40;4.70;;;20.70;76.10;;;;;;5070313;28;20741;-81
2022/07/20 05:26:46;;;;;;;5.55;4.78;;;20.70;76.00;;;;;;5054205;28;20346;-81
2022/07/20 05:29:13;;;;;;;7.32;5.30;;;20.80;75.90;;;;;;5067272;28;20216;-80
2022/07/20 05:31:40;;;;;;;6.88;5.20;;;20.90;75.70;;;;;;5065619;28;20230;-81
2022/07/20 05:34:07;;;;;;;7.07;5.40;;;20.90;75.50;;;;;;5071306;28;20313;-81
2022/07/20 05:36:35;;;;;;;7.00;5.30;;;21.00;75.60;;;;;;5072331;28;20224;-81
2022/07/20 05:39:01;;;;;;;8.82;5.10;;;21.00;75.60;;;;;;5062398;28;20917;-80
2022/07/20 05:41:28;;;;;;;7.38;4.72;;;21.10;75.40;;;;;;5067621;28;20220;-82
2022/07/20 05:43:55;;;;;;;8.27;4.80;;;21.20;75.10;;;;;;5084032;28;20228;-80
2022/07/20 05:46:21;;;;;;;7.80;5.10;;;21.20;75.30;;;;;;5060003;28;20234;-81
2022/07/20 05:48:48;;;;;;;7.45;4.95;;;21.30;74.90;;;;;;5076915;28;20219;-81
2022/07/20 05:51:15;;;;;;;7.07;5.15;;;21.50;74.80;;;;;;5065420;28;20230;-81
2022/07/20 05:53:43;;;;;;;6.82;4.97;;;21.50;75.00;;;;;;5065705;28;20228;-81
2022/07/20 05:56:09;;;;;;;7.70;4.53;;;21.60;74.80;;;;;;5069066;28;20322;-80
2022/07/20 05:58:36;;;;;;;7.13;5.32;;;21.70;74.20;;;;;;5074345;28;20631;-80
2022/07/20 06:01:03;;;;;;;7.78;4.72;;;21.90;74.10;;;;;;5081533;28;20226;-80
2022/07/20 06:03:29;;;;;;;7.55;4.68;;;21.90;73.40;;;;;;5071271;28;20226;-81
2022/07/20 06:05:56;;;;;;;7.88;4.85;;;22.10;73.40;;;;;;5067290;28;20313;-81
2022/07/20 06:08:23;;;;;;;8.95;4.72;;;22.20;73.10;;;;;;5075766;28;20238;-81
2022/07/20 06:10:51;;;;;;;7.55;5.30;;;22.30;73.00;;;;;;5069592;28;20253;-81
2022/07/20 06:13:18;;;;;;;6.63;5.18;;;22.40;72.10;;;;;;5080668;28;20237;-80
2022/07/20 06:15:44;;;;;;;6.13;5.07;;;22.50;72.00;;;;;;5070361;28;20224;-81
2022/07/20 06:18:11;;;;;;;7.93;4.88;;;22.60;72.00;;;;;;5070500;28;20225;-81
2022/07/20 06:20:38;;;;;;;8.90;4.80;;;22.60;71.60;;;;;;5071169;28;20305;-80
2022/07/20 06:23:05;;;;;;;5.95;4.57;;;22.70;71.10;;;;;;5080553;28;20230;-81
2022/07/20 06:25:31;;;;;;;7.00;4.85;;;22.80;71.30;;;;;;5066006;28;20220;-81
2022/07/20 06:28:00;;;;;;;5.80;4.72;;;22.90;70.70;;;;;;5086601;28;20269;-81
2022/07/20 06:30:27;;;;;;;9.40;4.90;;;23.00;70.50;;;;;;5077325;28;20273;-80
2022/07/20 06:32:55;;;;;;;5.32;4.82;;;23.10;70.20;;;;;;5082293;28;20226;-80
2022/07/20 06:35:22;;;;;;;5.47;4.80;;;23.30;70.10;;;;;;5076988;28;20247;-80
2022/07/20 06:37:49;;;;;;;8.13;4.90;;;23.30;69.70;;;;;;5080648;28;20473;-80
2022/07/20 06:40:15;;;;;;;6.78;4.70;;;23.40;70.00;;;;;;5070385;28;20224;-81
2022/07/20 06:42:42;;;;;;;6.05;4.75;;;23.50;69.30;;;;;;5078401;28;20909;-81
2022/07/20 06:45:11;;;;;;;6.80;4.60;;;23.60;69.30;;;;;;5080636;28;20659;-80
2022/07/20 06:47:38;;;;;;;8.05;4.70;;;23.70;68.80;;;;;;5078664;28;20597;-81
2022/07/20 06:50:05;;;;;;;7.13;5.03;;;23.90;69.20;;;;;;5072818;28;20236;-81
2022/07/20 06:52:32;;;;;;;6.85;4.50;;;24.00;68.70;;;;;;5075892;28;20714;-80
2022/07/20 06:54:59;;;;;;;9.70;4.80;;;24.10;68.20;;;;;;5073756;28;20227;-81
2022/07/20 06:57:26;;;;;;;7.65;4.95;;;24.10;68.40;;;;;;5077950;28;20227;-81
2022/07/20 06:59:52;;;;;;;6.82;4.78;;;24.30;68.20;;;;;;5087749;28;20233;-81
2022/07/20 07:02:20;;;;;;;7.53;4.85;;;24.40;68.00;;;;;;5080030;28;20263;-81
2022/07/20 07:04:48;;;;;;;6.90;4.95;;;24.50;67.70;;;;;;5083562;28;20270;-80
2022/07/20 07:07:14;;;;;;;6.03;4.45;;;24.60;67.30;;;;;;5085834;28;20214;-80
2022/07/20 07:09:41;;;;;;;6.72;4.45;;;24.80;67.30;;;;;;5070645;28;20216;-80
2022/07/20 07:12:08;;;;;;;5.45;4.22;;;25.10;67.30;;;;;;5079688;28;20222;-79
2022/07/20 07:14:36;;;;;;;6.55;4.45;;;25.30;67.50;;;;;;5065012;28;20256;-79
2022/07/20 07:17:02;;;;;;;7.53;4.75;;;25.70;66.50;;;;;;5077956;28;20223;-79
2022/07/20 07:19:31;;;;;;;9.10;4.95;;;26.00;65.30;;;;;;5074552;28;20652;-79
2022/07/20 07:21:57;;;;;;;5.78;4.60;;;26.50;63.10;;;;;;5058783;28;20228;-79
2022/07/20 07:24:24;;;;;;;8.88;4.57;;;27.00;63.10;;;;;;5065823;28;20234;-80
2022/07/20 07:26:51;;;;;;;6.50;4.45;;;27.50;61.60;;;;;;5064856;28;20706;-79
2022/07/20 07:29:19;;;;;;;7.70;4.47;;;28.10;60.60;;;;;;5057790;28;20231;-79
2022/07/20 07:31:46;;;;;;;7.55;4.40;;;28.70;60.00;;;;;;5070581;28;20227;-80
2022/07/20 07:34:13;;;;;;;10.05;4.25;;;29.30;58.80;;;;;;5067930;28;20223;-80
2022/07/20 07:36:41;;;;;;;7.82;4.15;;;29.90;57.60;;;;;;5073001;28;20235;-80
2022/07/20 07:39:08;;;;;;;8.43;4.07;;;30.50;56.60;;;;;;5076212;28;20223;-80
2022/07/20 07:41:35;;;;;;;5.43;3.80;;;31.00;56.20;;;;;;5077969;28;20232;-80
2022/07/20 07:44:02;;;;;;;6.15;4.10;;;31.60;56.30;;;;;;5073205;28;20310;-80
2022/07/20 07:46:28;;;;;;;5.13;4.00;;;32.10;54.60;;;;;;5078438;28;20227;-80
2022/07/20 07:48:55;;;;;;;4.93;4.00;;;32.70;52.50;;;;;;5089183;28;20840;-80
2022/07/20 07:51:22;;;;;;;5.68;3.78;;;33.20;51.80;;;;;;5065850;28;20539;-80
2022/07/20 07:53:50;;;;;;;4.63;4.22;;;33.50;50.40;;;;;;5066643;28;20797;-80
2022/07/20 07:56:16;;;;;;;7.53;4.10;;;33.90;49.00;;;;;;5065162;28;20243;-80
2022/07/20 07:58:43;;;;;;;4.90;4.03;;;34.10;49.40;;;;;;5076513;28;20223;-80
2022/07/20 08:01:10;;;;;;;4.63;4.05;;;34.40;49.40;;;;;;5073655;28;20235;-80
2022/07/20 08:03:36;;;;;;;5.82;3.88;;;34.70;48.40;;;;;;5061470;28;20275;-80
2022/07/20 08:06:05;;;;;;;7.15;4.32;;;35.00;47.70;;;;;;5072971;28;20222;-80
2022/07/20 08:08:31;;;;;;;5.10;3.70;;;35.40;47.60;;;;;;5072536;28;20954;-80
2022/07/20 08:11:00;;;;;;;7.57;4.60;;;35.70;46.40;;;;;;5055606;28;20216;-80
2022/07/20 08:13:27;;;;;;;7.53;4.63;;;36.00;45.80;;;;;;5054498;28;20234;-80
2022/07/20 08:15:54;;;;;;;4.95;3.80;;;36.40;45.80;;;;;;5058988;28;20298;-80
2022/07/20 08:18:21;;;;;;;8.75;4.05;;;36.70;43.90;;;;;;5056842;28;20220;-80
2022/07/20 08:20:48;;;;;;;4.57;3.50;;;37.00;43.40;;;;;;5062816;28;20236;-80
2022/07/20 08:23:15;;;;;;;4.80;3.92;;;37.20;44.00;;;;;;5065125;28;20745;-80
2022/07/20 08:25:42;;;;;;;5.55;3.95;;;37.40;42.10;;;;;;5068000;28;20215;-80
2022/07/20 08:28:12;;;;;;;10.40;4.13;;;37.40;41.10;;;;;;5072243;28;20655;-80
2022/07/20 08:30:40;;;;;;;8.65;3.88;;;37.50;40.90;;;;;;5064392;28;20228;-80
2022/07/20 08:33:06;;;;;;;6.20;3.92;;;37.50;40.10;;;;;;5054659;28;20250;-80
2022/07/20 08:35:33;;;;;;;5.13;4.03;;;37.50;40.20;;;;;;5053870;28;20414;-80
2022/07/20 08:38:00;;;;;;;5.07;3.78;;;37.50;40.10;;;;;;5055877;28;20229;-80
2022/07/20 08:40:27;;;;;;;6.55;4.13;;;37.50;39.90;;;;;;5055806;28;20231;-79
2022/07/20 08:42:54;;;;;;;6.40;3.78;;;37.50;39.70;;;;;;5052739;28;20219;-78
2022/07/20 08:45:22;;;;;;;5.97;3.90;;;37.50;39.00;;;;;;5064847;28;20226;-79
2022/07/20 08:47:50;;;;;;;5.22;4.10;;;37.60;39.20;;;;;;5061869;28;20216;-79
2022/07/20 08:50:22;;;;;;;8.32;4.57;;;37.60;39.40;;;;;;5066566;28;20219;-78
2022/07/20 08:52:50;;;;;;;8.80;4.38;;;37.70;38.80;;;;;;5054197;28;20284;-79
2022/07/20 08:55:16;;;;;;;4.95;4.28;;;37.80;38.60;;;;;;5055046;28;20234;-79
2022/07/20 08:57:43;;;;;;;5.70;4.15;;;37.90;39.00;;;;;;5066839;28;20222;-79
2022/07/20 09:00:11;;;;;;;5.63;4.40;;;38.00;39.20;;;;;;5065367;28;20235;-79
2022/07/20 09:02:54;;;;;;;14.23;6.40;;;38.20;39.20;;;;;;5067056;28;20289;-79
2022/07/20 09:05:21;;;;;;;14.40;6.50;;;38.40;38.30;;;;;;5056129;28;20234;-79
2022/07/20 09:07:50;;;;;;;8.73;6.63;;;38.70;38.40;;;;;;5059991;28;20841;-79
2022/07/20 09:10:20;;;;;;;7.07;6.38;;;38.90;37.40;;;;;;5052248;28;20220;-79
2022/07/20 09:12:56;;;;;;;9.00;6.30;;;39.00;37.70;;;;;;5073131;28;20219;-79
2022/07/20 09:15:28;;;;;;;10.93;7.53;;;39.10;37.00;;;;;;5055862;28;20233;-79
2022/07/20 09:18:09;;;;;;;10.73;9.35;;;39.30;37.10;;;;;;5080309;28;20302;-79
2022/07/20 09:20:37;;;;;;;13.88;12.18;;;39.50;36.80;;;;;;5073225;28;20295;-79
2022/07/20 09:23:06;;;;;;;16.17;12.80;;;39.80;36.80;;;;;;5068459;28;20700;-79
2022/07/20 09:25:33;;;;;;;15.50;12.90;;;39.80;35.90;;;;;;5053619;28;20736;-79
2022/07/20 09:28:00;;;;;;;15.52;13.80;;;39.90;36.40;;;;;;5053737;28;20231;-79
2022/07/20 09:30:27;;;;;;;22.75;17.33;;;40.00;36.60;;;;;;5057065;28;20229;-79
2022/07/20 09:32:57;;;;;;;24.75;22.02;;;40.10;35.70;;;;;;5061878;28;20965;-79
2022/07/20 09:35:27;;;;;;;24.60;22.02;;;40.20;35.60;;;;;;5049352;28;20234;-79
2022/07/20 09:37:56;;;;;;;21.88;19.27;;;40.40;35.90;;;;;;5069500;28;20222;-79
2022/07/20 09:40:24;;;;;;;18.77;16.15;;;40.50;35.60;;;;;;5048835;28;20224;-79
2022/07/20 09:42:51;;;;;;;15.98;14.27;;;40.60;35.60;;;;;;5049442;28;20330;-78
2022/07/20 09:45:22;;;;;;;15.25;11.98;;;40.70;34.80;;;;;;5056913;28;20228;-79
2022/07/20 09:48:10;;;;;;;14.00;11.50;;;40.70;34.30;;;;;;5052010;28;20222;-79
2022/07/20 09:50:40;;;;;;;12.85;10.88;;;40.70;33.50;;;;;;5062911;28;20228;-79
2022/07/20 09:53:09;;;;;;;13.60;12.18;;;40.80;34.90;;;;;;5057200;28;20314;-79
2022/07/20 09:55:37;;;;;;;13.60;12.20;;;40.90;35.20;;;;;;5064979;28;20228;-79
2022/07/20 09:58:05;;;;;;;12.18;10.82;;;41.00;35.40;;;;;;5056028;28;20227;-79
2022/07/20 10:00:33;;;;;;;12.77;9.98;;;41.10;35.30;;;;;;5067565;28;20294;-78
2022/07/20 10:03:02;;;;;;;9.82;8.77;;;41.30;35.20;;;;;;5065583;28;20229;-79
2022/07/20 10:05:31;;;;;;;12.60;8.25;;;41.50;33.80;;;;;;5066602;28;20247;-78
2022/07/20 10:08:05;;;;;;;9.00;8.10;;;41.60;34.90;;;;;;5058397;28;20219;-78
2022/07/20 10:10:32;;;;;;;8.90;7.95;;;41.70;34.90;;;;;;5058596;28;20303;-79
2022/07/20 10:13:00;;;;;;;9.93;7.63;;;41.90;35.20;;;;;;5072690;28;20714;-79
2022/07/20 10:15:36;;;;;;;10.52;6.90;;;42.10;34.90;;;;;;5059913;28;20897;-79
2022/07/20 10:18:07;;;;;;;8.00;6.00;;;42.40;34.40;;;;;;5060953;28;20217;-79
2022/07/20 10:20:35;;;;;;;7.32;5.57;;;42.60;34.40;;;;;;5067202;28;20824;-78
2022/07/20 10:23:29;;;;;;;8.52;6.45;;;42.90;34.20;;;;;;5059022;28;20219;-78
2022/07/20 10:25:57;;;;;;;6.40;5.50;;;43.10;34.20;;;;;;5074906;28;20561;-79
2022/07/20 10:28:33;;;;;;;7.57;5.97;;;43.20;33.20;;;;;;5067014;28;20575;-78
2022/07/20 10:31:02;;;;;;;7.88;5.47;;;43.20;32.90;;;;;;5058514;28;20227;-79
2022/07/20 10:33:32;;;;;;;10.20;5.18;;;43.30;33.00;;;;;;5055032;28;20262;-76
2022/07/20 10:38:54;;;;;;;7.60;5.65;;;43.30;33.00;;;;;;5070362;28;20228;-78
2022/07/20 10:41:36;;;;;;;7.97;5.15;;;43.20;32.40;;;;;;5050372;28;20681;-78
2022/07/20 10:44:30;;;;;;;8.68;5.63;;;43.20;32.90;;;;;;5054985;28;20265;-77
2022/07/20 10:46:57;;;;;;;9.82;5.10;;;43.20;32.80;;;;;;5062197;28;20219;-77
2022/07/20 10:49:58;;;;;;;7.85;5.45;;;43.20;32.40;;;;;;5054666;28;20251;-78
2022/07/20 10:52:29;;;;;;;7.75;4.30;;;43.30;32.30;;;;;;5064455;28;20310;-78
2022/07/20 10:54:57;;;;;;;7.45;4.72;;;43.50;32.70;;;;;;5055741;28;20243;-78
2022/07/20 10:57:25;;;;;;;6.05;4.55;;;43.60;32.60;;;;;;5057098;28;20232;-77
2022/07/20 11:00:16;;;;;;;6.15;4.30;;;43.70;32.30;;;;;;5065550;28;20232;-77
2022/07/20 11:02:43;;;;;;;8.32;3.65;;;43.90;32.10;;;;;;5047153;28;20227;-78
2022/07/20 11:05:20;;;;;;;6.35;4.10;;;44.20;30.30;;;;;;5058472;28;20740;-78
2022/07/20 11:07:47;;;;;;;6.18;4.15;;;44.40;30.30;;;;;;5067139;28;20223;-78
2022/07/20 11:10:24;;;;;;;6.63;4.05;;;44.50;31.00;;;;;;5061266;28;20226;-77
2022/07/20 11:12:57;;;;;;;7.13;4.20;;;44.60;30.20;;;;;;5056532;28;20227;-77
2022/07/20 11:15:24;;;;;;;5.18;3.55;;;44.60;31.00;;;;;;5058716;28;20227;-78
2022/07/20 11:17:55;;;;;;;4.85;3.90;;;44.60;28.80;;;;;;5052058;28;20243;-77
2022/07/20 11:20:22;;;;;;;5.60;3.33;;;44.60;29.10;;;;;;5052321;28;20997;-78
2022/07/20 11:22:49;;;;;;;5.80;3.28;;;44.50;29.50;;;;;;5059541;28;20231;-78
2022/07/20 11:25:15;;;;;;;12.38;4.20;;;44.50;29.30;;;;;;5052871;28;20329;-78
2022/07/20 11:27:43;;;;;;;6.30;4.05;;;44.50;28.70;;;;;;5062105;28;20227;-78
2022/07/20 11:30:12;;;;;;;5.20;3.35;;;44.40;28.70;;;;;;5054124;28;20216;-78
2022/07/20 11:32:52;;;;;;;5.47;3.42;;;44.30;28.80;;;;;;5058617;28;20230;-77
2022/07/20 11:35:20;;;;;;;4.45;3.30;;;44.10;28.80;;;;;;5067283;28;20219;-77
2022/07/20 11:37:51;;;;;;;5.25;3.10;;;43.90;28.60;;;;;;5059518;28;20227;-77
2022/07/20 11:40:18;;;;;;;4.15;3.17;;;43.70;27.60;;;;;;5058669;28;20215;-78
2022/07/20 11:43:05;;;;;;;5.15;3.10;;;43.60;28.30;;;;;;5068969;28;20311;-78
2022/07/20 11:45:32;;;;;;;6.10;3.55;;;43.50;28.40;;;;;;5066297;28;20223;-78
2022/07/20 11:47:59;;;;;;;7.20;3.45;;;43.40;28.20;;;;;;5059479;28;20227;-78
2022/07/20 11:50:32;;;;;;;5.95;3.22;;;43.40;28.40;;;;;;5049133;28;20228;-77
2022/07/20 11:52:58;;;;;;;5.82;3.75;;;43.30;28.20;;;;;;5058082;28;20227;-77
2022/07/20 11:55:34;;;;;;;5.50;3.47;;;43.40;28.60;;;;;;5065403;28;20230;-78
2022/07/20 11:58:02;;;;;;;7.68;3.92;;;43.40;28.60;;;;;;5064686;28;20309;-78
2022/07/20 12:00:30;;;;;;;6.47;3.92;;;43.40;28.60;;;;;;5049712;28;20858;-78
2022/07/20 12:02:57;;;;;;;5.25;3.08;;;43.40;28.30;;;;;;5055455;28;20224;-78
2022/07/20 12:05:24;;;;;;;4.95;3.42;;;43.30;28.30;;;;;;5047760;28;20230;-78
2022/07/20 12:08:09;;;;;;;6.03;3.30;;;43.30;28.70;;;;;;5058902;28;20596;-78
2022/07/20 12:10:36;;;;;;;4.07;3.03;;;43.30;28.90;;;;;;5049790;28;20240;-78
2022/07/20 12:13:06;;;;;;;5.43;3.38;;;43.40;29.10;;;;;;5047151;28;20228;-78
2022/07/20 12:15:34;;;;;;;5.50;3.65;;;43.40;28.50;;;;;;5051732;28;20227;-78
2022/07/20 12:18:01;;;;;;;5.55;3.40;;;43.40;28.30;;;;;;5066903;28;20813;-78
2022/07/20 12:20:28;;;;;;;4.35;3.10;;;43.40;28.40;;;;;;5058319;28;20224;-77
2022/07/20 12:22:57;;;;;;;3.97;3.15;;;43.40;28.80;;;;;;5054361;28;20290;-78
2022/07/20 12:25:35;;;;;;;3.63;3.30;;;43.40;28.60;;;;;;5056772;28;20230;-77
2022/07/20 12:28:02;;;;;;;7.28;3.50;;;43.40;28.20;;;;;;5065415;28;20277;-77
2022/07/20 12:30:34;;;;;;;3.83;3.03;;;43.40;28.20;;;;;;5065135;28;20630;-78
2022/07/20 12:33:07;;;;;;;4.85;3.35;;;43.40;28.90;;;;;;5049863;28;20220;-77
2022/07/20 12:35:34;;;;;;;6.32;3.30;;;43.40;28.60;;;;;;5058387;28;20677;-77
2022/07/20 12:38:01;;;;;;;4.03;3.10;;;43.50;28.00;;;;;;5063760;28;20696;-77
2022/07/20 12:40:37;;;;;;;5.20;3.05;;;43.50;27.80;;;;;;5062430;28;20693;-78
2022/07/20 12:43:06;;;;;;;5.88;3.58;;;43.60;27.30;;;;;;5060395;28;21016;-77
2022/07/20 12:45:34;;;;;;;4.38;3.30;;;43.60;27.40;;;;;;5053798;28;20227;-77
2022/07/20 12:48:01;;;;;;;8.05;3.53;;;43.50;27.10;;;;;;5054841;28;20690;-78
2022/07/20 12:50:27;;;;;;;4.57;3.40;;;43.60;26.80;;;;;;5062702;28;20318;-78
2022/07/20 12:52:54;;;;;;;4.75;3.38;;;43.40;26.80;;;;;;5051225;28;20224;-78
2022/07/20 12:55:21;;;;;;;5.45;3.40;;;43.40;26.80;;;;;;5051615;28;20227;-77